sensor_id;sensor_type;location;lat;lon;timestamp;temperature;humidity
32895;DHT22;19251;49.484;8.260;2022-10-26T00:01:51;15.10;31.10
32895;DHT22;19251;49.484;8.260;2022-10-26T00:06:53;15.30;31.50
32895;DHT22;19251;49.484;8.260;2022-10-26T00:11:55;15.10;31.30
32895;DHT22;19251;49.484;8.260;2022-10-26T00:16:58;15.20;31.40
32895;DHT22;19251;49.484;8.260;2022-10-26T00:22:00;15.20;31.30
32895;DHT22;19251;49.484;8.260;2022-10-26T00:27:02;15.20;31.40
32895;DHT22;19251;49.484;8.260;2022-10-26T00:32:04;15.20;32.20
32895;DHT22;19251;49.484;8.260;2022-10-26T00:42:15;15.20;31.50
32895;DHT22;19251;49.484;8.260;2022-10-26T00:52:37;15.20;32.20
32895;DHT22;19251;49.484;8.260;2022-10-26T00:57:39;15.20;32.20
32895;DHT22;19251;49.484;8.260;2022-10-26T01:02:42;15.20;31.60
32895;DHT22;19251;49.484;8.260;2022-10-26T01:07:46;15.20;32.40
32895;DHT22;19251;49.484;8.260;2022-10-26T01:12:49;15.20;32.40
32895;DHT22;19251;49.484;8.260;2022-10-26T01:18:12;15.20;32.50
32895;DHT22;19251;49.484;8.260;2022-10-26T01:23:36;15.10;31.70
32895;DHT22;19251;49.484;8.260;2022-10-26T01:34:24;15.20;32.00
32895;DHT22;19251;49.484;8.260;2022-10-26T01:39:51;15.20;32.00
32895;DHT22;19251;49.484;8.260;2022-10-26T01:45:05;15.20;32.10
32895;DHT22;19251;49.484;8.260;2022-10-26T01:50:09;15.30;33.20
32895;DHT22;19251;49.484;8.260;2022-10-26T02:00:50;15.30;32.20
32895;DHT22;19251;49.484;8.260;2022-10-26T02:06:11;15.50;32.40
32895;DHT22;19251;49.484;8.260;2022-10-26T02:22:04;15.40;32.40
32895;DHT22;19251;49.484;8.260;2022-10-26T02:27:12;15.40;32.40
32895;DHT22;19251;49.484;8.260;2022-10-26T02:32:16;15.40;32.30
32895;DHT22;19251;49.484;8.260;2022-10-26T02:37:20;15.40;33.10
32895;DHT22;19251;49.484;8.260;2022-10-26T02:42:25;15.40;33.10
32895;DHT22;19251;49.484;8.260;2022-10-26T02:47:28;15.50;32.60
32895;DHT22;19251;49.484;8.260;2022-10-26T02:57:48;15.50;32.50
32895;DHT22;19251;49.484;8.260;2022-10-26T03:02:54;15.50;32.60
32895;DHT22;19251;49.484;8.260;2022-10-26T03:07:58;15.50;33.50
32895;DHT22;19251;49.484;8.260;2022-10-26T03:13:02;15.60;33.70
32895;DHT22;19251;49.484;8.260;2022-10-26T03:18:05;15.60;32.90
32895;DHT22;19251;49.484;8.260;2022-10-26T03:23:07;15.60;33.10
32895;DHT22;19251;49.484;8.260;2022-10-26T03:28:09;15.70;33.00
32895;DHT22;19251;49.484;8.260;2022-10-26T03:33:12;15.60;32.90
32895;DHT22;19251;49.484;8.260;2022-10-26T03:38:14;15.40;32.70
32895;DHT22;19251;49.484;8.260;2022-10-26T03:43:17;15.70;33.70
32895;DHT22;19251;49.484;8.260;2022-10-26T03:48:19;15.70;32.90
32895;DHT22;19251;49.484;8.260;2022-10-26T03:53:21;15.80;33.80
32895;DHT22;19251;49.484;8.260;2022-10-26T03:58:23;15.70;32.90
32895;DHT22;19251;49.484;8.260;2022-10-26T04:03:30;15.80;33.00
32895;DHT22;19251;49.484;8.260;2022-10-26T04:08:32;15.80;33.00
32895;DHT22;19251;49.484;8.260;2022-10-26T04:13:34;15.80;33.10
32895;DHT22;19251;49.484;8.260;2022-10-26T04:18:36;15.80;33.80
32895;DHT22;19251;49.484;8.260;2022-10-26T04:23:38;15.80;33.10
32895;DHT22;19251;49.484;8.260;2022-10-26T04:28:40;15.70;33.00
32895;DHT22;19251;49.484;8.260;2022-10-26T04:33:42;15.70;33.00
32895;DHT22;19251;49.484;8.260;2022-10-26T04:38:44;15.70;33.10
32895;DHT22;19251;49.484;8.260;2022-10-26T04:43:49;15.70;33.20
32895;DHT22;19251;49.484;8.260;2022-10-26T04:48:51;15.70;33.20
32895;DHT22;19251;49.484;8.260;2022-10-26T04:58:56;15.80;33.40
32895;DHT22;19251;49.484;8.260;2022-10-26T05:03:58;15.80;33.30
32895;DHT22;19251;49.484;8.260;2022-10-26T05:09:01;16.00;33.50
32895;DHT22;19251;49.484;8.260;2022-10-26T05:14:03;15.90;33.40
32895;DHT22;19251;49.484;8.260;2022-10-26T05:19:06;15.90;33.40
32895;DHT22;19251;49.484;8.260;2022-10-26T05:24:08;15.90;33.40
32895;DHT22;19251;49.484;8.260;2022-10-26T05:29:13;16.00;33.50
32895;DHT22;19251;49.484;8.260;2022-10-26T05:34:15;16.00;33.50
32895;DHT22;19251;49.484;8.260;2022-10-26T05:39:17;16.10;33.60
32895;DHT22;19251;49.484;8.260;2022-10-26T05:44:19;16.10;33.40
32895;DHT22;19251;49.484;8.260;2022-10-26T05:49:21;16.30;33.60
32895;DHT22;19251;49.484;8.260;2022-10-26T05:54:23;16.10;33.40
32895;DHT22;19251;49.484;8.260;2022-10-26T05:59:26;16.10;33.40
32895;DHT22;19251;49.484;8.260;2022-10-26T06:09:40;16.10;33.30
32895;DHT22;19251;49.484;8.260;2022-10-26T06:14:43;16.10;33.40
32895;DHT22;19251;49.484;8.260;2022-10-26T06:19:58;16.10;33.50
32895;DHT22;19251;49.484;8.260;2022-10-26T06:30:40;16.20;33.70
32895;DHT22;19251;49.484;8.260;2022-10-26T06:41:06;16.20;33.80
32895;DHT22;19251;49.484;8.260;2022-10-26T06:46:41;16.20;33.80
32895;DHT22;19251;49.484;8.260;2022-10-26T06:51:58;16.20;34.10
32895;DHT22;19251;49.484;8.260;2022-10-26T06:57:00;16.20;34.00
32895;DHT22;19251;49.484;8.260;2022-10-26T07:02:03;16.20;34.00
32895;DHT22;19251;49.484;8.260;2022-10-26T07:07:16;16.20;34.00
32895;DHT22;19251;49.484;8.260;2022-10-26T07:12:18;16.30;34.10
32895;DHT22;19251;49.484;8.260;2022-10-26T07:17:21;16.30;34.10
32895;DHT22;19251;49.484;8.260;2022-10-26T07:22:23;16.40;34.20
32895;DHT22;19251;49.484;8.260;2022-10-26T07:27:26;16.50;34.20
32895;DHT22;19251;49.484;8.260;2022-10-26T07:32:28;16.50;34.10
32895;DHT22;19251;49.484;8.260;2022-10-26T07:37:31;16.50;34.00
32895;DHT22;19251;49.484;8.260;2022-10-26T07:42:33;16.60;34.10
32895;DHT22;19251;49.484;8.260;2022-10-26T07:47:37;16.60;34.20
32895;DHT22;19251;49.484;8.260;2022-10-26T07:52:39;16.60;34.10
32895;DHT22;19251;49.484;8.260;2022-10-26T07:57:42;16.70;34.20
32895;DHT22;19251;49.484;8.260;2022-10-26T08:02:44;16.80;34.30
32895;DHT22;19251;49.484;8.260;2022-10-26T08:07:47;16.90;34.40
32895;DHT22;19251;49.484;8.260;2022-10-26T08:12:51;16.90;34.20
32895;DHT22;19251;49.484;8.260;2022-10-26T08:17:54;17.10;34.30
32895;DHT22;19251;49.484;8.260;2022-10-26T08:22:57;17.20;34.40
32895;DHT22;19251;49.484;8.260;2022-10-26T08:28:01;17.30;34.20
32895;DHT22;19251;49.484;8.260;2022-10-26T08:33:06;17.60;34.40
32895;DHT22;19251;49.484;8.260;2022-10-26T08:38:09;17.60;34.30
32895;DHT22;19251;49.484;8.260;2022-10-26T08:43:15;17.80;34.30
32895;DHT22;19251;49.484;8.260;2022-10-26T08:48:25;18.00;34.30
32895;DHT22;19251;49.484;8.260;2022-10-26T08:53:38;18.20;34.50
32895;DHT22;19251;49.484;8.260;2022-10-26T08:58:44;18.20;34.30
32895;DHT22;19251;49.484;8.260;2022-10-26T09:14:02;19.00;33.20
32895;DHT22;19251;49.484;8.260;2022-10-26T09:19:56;19.20;33.10
32895;DHT22;19251;49.484;8.260;2022-10-26T09:24:32;19.30;33.20
32895;DHT22;19251;49.484;8.260;2022-10-26T09:34:51;19.70;32.90
32895;DHT22;19251;49.484;8.260;2022-10-26T09:45:15;19.90;32.30
32895;DHT22;19251;49.484;8.260;2022-10-26T09:50:36;20.10;32.20
32895;DHT22;19251;49.484;8.260;2022-10-26T09:55:42;20.10;32.20
32895;DHT22;19251;49.484;8.260;2022-10-26T10:00:46;20.20;32.10
32895;DHT22;19251;49.484;8.260;2022-10-26T10:05:48;20.30;32.30
32895;DHT22;19251;49.484;8.260;2022-10-26T10:16:12;20.80;32.70
32895;DHT22;19251;49.484;8.260;2022-10-26T10:21:15;21.00;32.30
32895;DHT22;19251;49.484;8.260;2022-10-26T10:26:17;21.40;31.70
32895;DHT22;19251;49.484;8.260;2022-10-26T10:31:22;21.70;31.70
32895;DHT22;19251;49.484;8.260;2022-10-26T10:36:29;21.80;31.00
32895;DHT22;19251;49.484;8.260;2022-10-26T10:41:33;22.30;29.80
32895;DHT22;19251;49.484;8.260;2022-10-26T10:46:37;22.40;29.60
32895;DHT22;19251;49.484;8.260;2022-10-26T10:51:40;22.70;29.10
32895;DHT22;19251;49.484;8.260;2022-10-26T10:56:51;22.90;28.00
32895;DHT22;19251;49.484;8.260;2022-10-26T11:07:21;23.10;26.90
32895;DHT22;19251;49.484;8.260;2022-10-26T11:12:58;23.20;26.90
32895;DHT22;19251;49.484;8.260;2022-10-26T11:18:12;23.20;26.10
32895;DHT22;19251;49.484;8.260;2022-10-26T11:23:45;23.30;26.40
32895;DHT22;19251;49.484;8.260;2022-10-26T11:29:24;23.30;26.70
32895;DHT22;19251;49.484;8.260;2022-10-26T11:34:48;23.30;26.10
32895;DHT22;19251;49.484;8.260;2022-10-26T11:40:02;23.30;26.30
32895;DHT22;19251;49.484;8.260;2022-10-26T11:45:13;23.20;25.60
32895;DHT22;19251;49.484;8.260;2022-10-26T11:50:26;23.20;26.40
32895;DHT22;19251;49.484;8.260;2022-10-26T11:55:30;23.30;26.40
32895;DHT22;19251;49.484;8.260;2022-10-26T12:00:32;23.40;26.10
32895;DHT22;19251;49.484;8.260;2022-10-26T12:05:49;23.50;25.50
32895;DHT22;19251;49.484;8.260;2022-10-26T12:16:16;23.60;23.60
32895;DHT22;19251;49.484;8.260;2022-10-26T12:21:27;23.80;23.80
32895;DHT22;19251;49.484;8.260;2022-10-26T12:37:09;24.40;24.20
32895;DHT22;19251;49.484;8.260;2022-10-26T12:52:53;24.90;22.20
32895;DHT22;19251;49.484;8.260;2022-10-26T13:03:48;25.10;23.00
32895;DHT22;19251;49.484;8.260;2022-10-26T13:08:57;25.50;22.70
32895;DHT22;19251;49.484;8.260;2022-10-26T13:14:07;25.80;22.60
32895;DHT22;19251;49.484;8.260;2022-10-26T13:24:47;26.30;18.10
32895;DHT22;19251;49.484;8.260;2022-10-26T13:35:14;26.50;18.20
32895;DHT22;19251;49.484;8.260;2022-10-26T13:40:20;26.50;18.10
32895;DHT22;19251;49.484;8.260;2022-10-26T13:45:31;26.90;17.30
32895;DHT22;19251;49.484;8.260;2022-10-26T13:50:51;27.20;16.70
32895;DHT22;19251;49.484;8.260;2022-10-26T13:56:05;27.40;16.50
32895;DHT22;19251;49.484;8.260;2022-10-26T14:11:27;27.70;16.40
32895;DHT22;19251;49.484;8.260;2022-10-26T14:16:33;27.80;16.30
32895;DHT22;19251;49.484;8.260;2022-10-26T14:21:39;27.80;16.30
32895;DHT22;19251;49.484;8.260;2022-10-26T14:26:41;27.80;16.20
32895;DHT22;19251;49.484;8.260;2022-10-26T14:31:43;27.70;16.60
32895;DHT22;19251;49.484;8.260;2022-10-26T14:36:55;27.60;16.00
32895;DHT22;19251;49.484;8.260;2022-10-26T14:42:02;27.30;15.80
32895;DHT22;19251;49.484;8.260;2022-10-26T14:47:30;26.70;14.20
32895;DHT22;19251;49.484;8.260;2022-10-26T14:52:34;26.50;14.00
32895;DHT22;19251;49.484;8.260;2022-10-26T14:57:39;26.10;14.40
32895;DHT22;19251;49.484;8.260;2022-10-26T15:02:46;25.90;14.30
32895;DHT22;19251;49.484;8.260;2022-10-26T15:07:51;25.70;14.20
32895;DHT22;19251;49.484;8.260;2022-10-26T15:12:54;25.50;15.50
32895;DHT22;19251;49.484;8.260;2022-10-26T15:17:56;25.30;15.90
32895;DHT22;19251;49.484;8.260;2022-10-26T15:23:01;25.10;16.20
32895;DHT22;19251;49.484;8.260;2022-10-26T15:28:28;25.00;16.40
32895;DHT22;19251;49.484;8.260;2022-10-26T15:33:33;24.70;16.40
32895;DHT22;19251;49.484;8.260;2022-10-26T15:38:35;24.60;16.90
32895;DHT22;19251;49.484;8.260;2022-10-26T15:43:38;24.30;17.30
32895;DHT22;19251;49.484;8.260;2022-10-26T15:48:40;23.90;17.50
32895;DHT22;19251;49.484;8.260;2022-10-26T15:53:42;23.60;17.70
32895;DHT22;19251;49.484;8.260;2022-10-26T15:58:45;23.40;17.90
32895;DHT22;19251;49.484;8.260;2022-10-26T16:03:47;23.40;18.20
32895;DHT22;19251;49.484;8.260;2022-10-26T16:08:51;23.20;18.30
32895;DHT22;19251;49.484;8.260;2022-10-26T16:19:02;22.90;18.80
32895;DHT22;19251;49.484;8.260;2022-10-26T16:24:25;22.50;19.00
32895;DHT22;19251;49.484;8.260;2022-10-26T16:29:28;22.40;19.60
32895;DHT22;19251;49.484;8.260;2022-10-26T16:34:30;21.90;19.80
32895;DHT22;19251;49.484;8.260;2022-10-26T16:39:32;21.70;20.30
32895;DHT22;19251;49.484;8.260;2022-10-26T16:44:34;21.50;20.60
32895;DHT22;19251;49.484;8.260;2022-10-26T16:49:38;21.30;20.20
32895;DHT22;19251;49.484;8.260;2022-10-26T16:54:44;21.20;20.40
32895;DHT22;19251;49.484;8.260;2022-10-26T17:04:49;20.90;21.60
32895;DHT22;19251;49.484;8.260;2022-10-26T17:09:51;20.70;21.40
32895;DHT22;19251;49.484;8.260;2022-10-26T17:14:53;20.70;21.80
32895;DHT22;19251;49.484;8.260;2022-10-26T17:19:57;20.60;22.30
32895;DHT22;19251;49.484;8.260;2022-10-26T17:35:04;20.20;22.20
32895;DHT22;19251;49.484;8.260;2022-10-26T17:40:07;19.70;22.00
32895;DHT22;19251;49.484;8.260;2022-10-26T17:45:09;19.90;22.40
32895;DHT22;19251;49.484;8.260;2022-10-26T17:50:11;19.80;22.60
32895;DHT22;19251;49.484;8.260;2022-10-26T17:55:13;19.70;23.00
32895;DHT22;19251;49.484;8.260;2022-10-26T18:00:15;19.60;23.20
32895;DHT22;19251;49.484;8.260;2022-10-26T18:05:19;19.60;24.30
32895;DHT22;19251;49.484;8.260;2022-10-26T18:10:21;19.40;23.90
32895;DHT22;19251;49.484;8.260;2022-10-26T18:15:39;19.30;23.70
32895;DHT22;19251;49.484;8.260;2022-10-26T18:20:41;19.30;23.90
32895;DHT22;19251;49.484;8.260;2022-10-26T18:25:43;19.20;23.90
32895;DHT22;19251;49.484;8.260;2022-10-26T18:30:46;19.00;24.20
32895;DHT22;19251;49.484;8.260;2022-10-26T18:35:48;19.00;24.40
32895;DHT22;19251;49.484;8.260;2022-10-26T18:40:51;19.10;24.60
32895;DHT22;19251;49.484;8.260;2022-10-26T18:46:05;18.90;25.00
32895;DHT22;19251;49.484;8.260;2022-10-26T18:51:11;18.80;24.80
32895;DHT22;19251;49.484;8.260;2022-10-26T18:56:19;18.80;24.80
32895;DHT22;19251;49.484;8.260;2022-10-26T19:01:24;18.60;25.40
32895;DHT22;19251;49.484;8.260;2022-10-26T19:06:30;18.40;25.40
32895;DHT22;19251;49.484;8.260;2022-10-26T19:11:33;18.30;25.60
32895;DHT22;19251;49.484;8.260;2022-10-26T19:16:35;18.20;26.00
32895;DHT22;19251;49.484;8.260;2022-10-26T19:21:53;18.20;26.30
32895;DHT22;19251;49.484;8.260;2022-10-26T19:31:57;17.80;25.90
32895;DHT22;19251;49.484;8.260;2022-10-26T19:37:00;17.70;25.80
32895;DHT22;19251;49.484;8.260;2022-10-26T19:42:02;17.80;26.20
32895;DHT22;19251;49.484;8.260;2022-10-26T19:47:04;17.70;27.00
32895;DHT22;19251;49.484;8.260;2022-10-26T19:52:07;17.40;27.00
32895;DHT22;19251;49.484;8.260;2022-10-26T19:57:09;17.40;26.80
32895;DHT22;19251;49.484;8.260;2022-10-26T20:02:11;17.40;27.10
32895;DHT22;19251;49.484;8.260;2022-10-26T20:07:13;17.40;27.20
32895;DHT22;19251;49.484;8.260;2022-10-26T20:12:16;17.40;27.00
32895;DHT22;19251;49.484;8.260;2022-10-26T20:17:18;17.30;27.80
32895;DHT22;19251;49.484;8.260;2022-10-26T20:22:20;17.30;27.80
32895;DHT22;19251;49.484;8.260;2022-10-26T20:27:23;17.20;27.90
32895;DHT22;19251;49.484;8.260;2022-10-26T20:32:25;17.10;27.40
32895;DHT22;19251;49.484;8.260;2022-10-26T20:37:27;16.80;27.40
32895;DHT22;19251;49.484;8.260;2022-10-26T20:42:29;16.90;28.40
32895;DHT22;19251;49.484;8.260;2022-10-26T20:47:32;16.30;27.90
32895;DHT22;19251;49.484;8.260;2022-10-26T20:58:08;16.60;28.80
32895;DHT22;19251;49.484;8.260;2022-10-26T21:03:12;16.50;28.00
32895;DHT22;19251;49.484;8.260;2022-10-26T21:08:14;16.30;27.90
32895;DHT22;19251;49.484;8.260;2022-10-26T21:13:16;16.40;28.40
32895;DHT22;19251;49.484;8.260;2022-10-26T21:18:18;16.30;28.30
32895;DHT22;19251;49.484;8.260;2022-10-26T21:23:20;16.20;28.20
32895;DHT22;19251;49.484;8.260;2022-10-26T21:28:23;16.20;28.50
32895;DHT22;19251;49.484;8.260;2022-10-26T21:33:25;16.20;28.60
32895;DHT22;19251;49.484;8.260;2022-10-26T21:38:33;16.10;28.40
32895;DHT22;19251;49.484;8.260;2022-10-26T21:43:37;16.00;28.70
32895;DHT22;19251;49.484;8.260;2022-10-26T21:48:39;15.90;28.70
32895;DHT22;19251;49.484;8.260;2022-10-26T21:53:42;15.90;28.80
32895;DHT22;19251;49.484;8.260;2022-10-26T21:58:45;15.90;28.80
32895;DHT22;19251;49.484;8.260;2022-10-26T22:03:47;16.10;29.10
32895;DHT22;19251;49.484;8.260;2022-10-26T22:08:51;15.80;29.40
32895;DHT22;19251;49.484;8.260;2022-10-26T22:13:53;15.70;29.30
32895;DHT22;19251;49.484;8.260;2022-10-26T22:18:58;15.90;29.80
32895;DHT22;19251;49.484;8.260;2022-10-26T22:29:03;15.50;29.10
32895;DHT22;19251;49.484;8.260;2022-10-26T22:34:07;15.40;29.00
32895;DHT22;19251;49.484;8.260;2022-10-26T22:39:11;15.50;28.90
32895;DHT22;19251;49.484;8.260;2022-10-26T22:44:13;15.20;28.80
32895;DHT22;19251;49.484;8.260;2022-10-26T22:49:15;15.10;28.90
32895;DHT22;19251;49.484;8.260;2022-10-26T22:54:18;15.10;28.80
32895;DHT22;19251;49.484;8.260;2022-10-26T22:59:20;14.90;28.80
32895;DHT22;19251;49.484;8.260;2022-10-26T23:09:25;14.80;29.00
32895;DHT22;19251;49.484;8.260;2022-10-26T23:14:27;14.70;29.40
32895;DHT22;19251;49.484;8.260;2022-10-26T23:19:29;14.60;28.90
32895;DHT22;19251;49.484;8.260;2022-10-26T23:24:31;14.60;29.50
32895;DHT22;19251;49.484;8.260;2022-10-26T23:29:33;14.40;28.80
32895;DHT22;19251;49.484;8.260;2022-10-26T23:34:35;14.40;28.80
32895;DHT22;19251;49.484;8.260;2022-10-26T23:39:37;14.30;28.70
32895;DHT22;19251;49.484;8.260;2022-10-26T23:44:39;14.30;28.70
32895;DHT22;19251;49.484;8.260;2022-10-26T23:49:41;13.80;28.90
32895;DHT22;19251;49.484;8.260;2022-10-26T23:54:43;14.20;29.20
